Connexion S'enregistrer

Connexion à votre compte

Identifiant
Mot de passe
Maintenir la connexion active sur ce site

Créer un compte

Pour valider ce formulaire, vous devez remplir tous les champs.
Nom
Identifiant
Mot de passe
Répétez le mot de passe
Adresse e-mail
Répétez l'adresse e-mail

Nous contacter

 Téléphone : +33 (0)4 79 54 41 81

Coordonnées détaillées et accès : cliquez ici

 
LFLB °C
    Ferienhaus Ostsee
[source: ADDS]
METAR
LFLB 031000Z AUTO 36004KT 9999 ///TCU 23/15 Q1008 TEMPO NSC =
TAF LFLB 030500Z 0306/0406 18004KT CAVOK BECMG 0311/0313 FEW050TCU TEMPO 0314/0318 VRB15G25KT 4000 SHRA BKN060TCU PROB40 TEMPO 0314/0317 VRB20G30KT 2000 TSRA BKN060CB PROB30 TEMPO 0314/0316 1000 TSGR BECMG 0319/0321 RA BKN045 SCT050TCU TEMPO 0323/0406 20008KT 3000 +RA BKN010 BKN025 SCT040TCU
TAF
TAF LFLB 030500Z 0306/0406 18004KT CAVOK BECMG 0311/0313 FEW050TCU TEMPO 0314/0318 VRB15G25KT 4000 SHRA BKN060TCU PROB40 TEMPO 0314/0317 VRB20G30KT 2000 TSRA BKN060CB PROB30 TEMPO 0314/0316 1000 TSGR BECMG 0319/0321 RA BKN045 SCT050TCU TEMPO 0323/0406 20008KT 3000 +RA BKN010 BKN025 SCT040TCU =
SR / SS: 03:49 / 19:20 UTC (Lever/Coucher du soleil le 2020-06-03)
JSN Boot template designed by JoomlaShine.com